sensor_id;sensor_type;location;lat;lon;timestamp;pressure;altitude;pressure_sealevel;temperature;humidity
30516;BME280;17297;54.022;10.760;2023-03-01T00:01:33;103155.44;;;4.69;55.65
30516;BME280;17297;54.022;10.760;2023-03-01T00:03:58;103153.75;;;4.68;55.55
30516;BME280;17297;54.022;10.760;2023-03-01T00:06:25;103150.31;;;4.66;55.60
30516;BME280;17297;54.022;10.760;2023-03-01T00:08:51;103135.25;;;4.65;55.60
30516;BME280;17297;54.022;10.760;2023-03-01T00:11:22;103137.06;;;4.64;55.46
30516;BME280;17297;54.022;10.760;2023-03-01T00:13:49;103142.50;;;4.62;55.74
30516;BME280;17297;54.022;10.760;2023-03-01T00:16:21;103141.63;;;4.62;55.65
30516;BME280;17297;54.022;10.760;2023-03-01T00:18:48;103149.63;;;4.62;55.49
30516;BME280;17297;54.022;10.760;2023-03-01T00:21:13;103143.47;;;4.61;55.78
30516;BME280;17297;54.022;10.760;2023-03-01T00:23:39;103139.06;;;4.60;55.64
30516;BME280;17297;54.022;10.760;2023-03-01T00:26:10;103141.72;;;4.60;55.58
30516;BME280;17297;54.022;10.760;2023-03-01T00:28:38;103143.53;;;4.60;55.71
30516;BME280;17297;54.022;10.760;2023-03-01T00:31:09;103143.66;;;4.58;55.67
30516;BME280;17297;54.022;10.760;2023-03-01T00:33:35;103156.97;;;4.58;55.64
30516;BME280;17297;54.022;10.760;2023-03-01T00:36:00;103151.66;;;4.58;55.72
30516;BME280;17297;54.022;10.760;2023-03-01T00:38:26;103147.25;;;4.57;55.78
30516;BME280;17297;54.022;10.760;2023-03-01T00:40:52;103150.03;;;4.56;55.79
30516;BME280;17297;54.022;10.760;2023-03-01T00:43:18;103149.16;;;4.55;55.74
30516;BME280;17297;54.022;10.760;2023-03-01T00:45:43;103140.41;;;4.53;55.92
30516;BME280;17297;54.022;10.760;2023-03-01T00:48:09;103137.72;;;4.53;55.79
30516;BME280;17297;54.022;10.760;2023-03-01T00:50:35;103136.03;;;4.52;55.76
30516;BME280;17297;54.022;10.760;2023-03-01T00:53:01;103132.59;;;4.50;55.70
30516;BME280;17297;54.022;10.760;2023-03-01T00:55:27;103134.47;;;4.48;55.76
30516;BME280;17297;54.022;10.760;2023-03-01T00:57:53;103131.81;;;4.48;55.96
30516;BME280;17297;54.022;10.760;2023-03-01T01:00:19;103132.78;;;4.47;55.77
30516;BME280;17297;54.022;10.760;2023-03-01T01:02:46;103124.91;;;4.46;55.81
30516;BME280;17297;54.022;10.760;2023-03-01T01:05:12;103130.31;;;4.44;55.94
30516;BME280;17297;54.022;10.760;2023-03-01T01:07:38;103119.75;;;4.43;55.87
30516;BME280;17297;54.022;10.760;2023-03-01T01:10:05;103118.03;;;4.42;55.95
30516;BME280;17297;54.022;10.760;2023-03-01T01:12:31;103108.22;;;4.42;55.96
30516;BME280;17297;54.022;10.760;2023-03-01T01:14:57;103110.03;;;4.42;56.15
30516;BME280;17297;54.022;10.760;2023-03-01T01:17:22;103113.53;;;4.42;55.91
30516;BME280;17297;54.022;10.760;2023-03-01T01:19:48;103107.28;;;4.43;55.96
30516;BME280;17297;54.022;10.760;2023-03-01T01:22:13;103100.13;;;4.44;56.15
30516;BME280;17297;54.022;10.760;2023-03-01T01:24:39;103097.47;;;4.44;55.88
30516;BME280;17297;54.022;10.760;2023-03-01T01:27:04;103098.31;;;4.44;56.15
30516;BME280;17297;54.022;10.760;2023-03-01T01:29:30;103093.94;;;4.43;56.27
30516;BME280;17297;54.022;10.760;2023-03-01T01:31:56;103093.09;;;4.43;55.95
30516;BME280;17297;54.022;10.760;2023-03-01T01:34:22;103089.56;;;4.42;56.05
30516;BME280;17297;54.022;10.760;2023-03-01T01:36:49;103092.13;;;4.44;55.98
30516;BME280;17297;54.022;10.760;2023-03-01T01:39:15;103089.47;;;4.44;56.24
30516;BME280;17297;54.022;10.760;2023-03-01T01:41:41;103087.78;;;4.43;56.13
30516;BME280;17297;54.022;10.760;2023-03-01T01:47:06;103089.66;;;4.40;56.26
30516;BME280;17297;54.022;10.760;2023-03-01T01:49:54;103080.91;;;4.38;56.41
30516;BME280;17297;54.022;10.760;2023-03-01T01:52:36;103086.34;;;4.37;56.53
30516;BME280;17297;54.022;10.760;2023-03-01T01:55:08;103081.09;;;4.35;56.40
30516;BME280;17297;54.022;10.760;2023-03-01T01:57:39;103076.72;;;4.34;56.39
30516;BME280;17297;54.022;10.760;2023-03-01T02:00:18;103079.38;;;4.34;56.60
30516;BME280;17297;54.022;10.760;2023-03-01T02:02:46;103077.69;;;4.33;56.40
30516;BME280;17297;54.022;10.760;2023-03-01T02:08:06;103078.53;;;4.34;56.55
30516;BME280;17297;54.022;10.760;2023-03-01T02:10:34;103068.81;;;4.33;56.54
30516;BME280;17297;54.022;10.760;2023-03-01T02:13:00;103057.28;;;4.32;56.58
30516;BME280;17297;54.022;10.760;2023-03-01T02:15:32;103051.97;;;4.32;56.54
30516;BME280;17297;54.022;10.760;2023-03-01T02:17:57;103049.41;;;4.31;56.70
30516;BME280;17297;54.022;10.760;2023-03-01T02:23:14;103049.59;;;4.28;56.77
30516;BME280;17297;54.022;10.760;2023-03-01T02:25:49;103039.03;;;4.26;56.80
30516;BME280;17297;54.022;10.760;2023-03-01T02:28:37;103043.50;;;4.26;56.83
30516;BME280;17297;54.022;10.760;2023-03-01T02:31:08;103037.31;;;4.25;57.10
30516;BME280;17297;54.022;10.760;2023-03-01T02:33:53;103033.81;;;4.25;56.88
30516;BME280;17297;54.022;10.760;2023-03-01T02:36:22;103036.56;;;4.23;56.99
30516;BME280;17297;54.022;10.760;2023-03-01T02:38:52;103021.44;;;4.24;57.13
30516;BME280;17297;54.022;10.760;2023-03-01T02:41:19;103029.44;;;4.24;57.21
30516;BME280;17297;54.022;10.760;2023-03-01T02:43:47;103028.47;;;4.25;57.05
30516;BME280;17297;54.022;10.760;2023-03-01T02:46:18;103027.63;;;4.24;57.36
30516;BME280;17297;54.022;10.760;2023-03-01T02:48:50;103014.31;;;4.24;57.07
30516;BME280;17297;54.022;10.760;2023-03-01T02:54:22;103022.38;;;4.23;57.40
30516;BME280;17297;54.022;10.760;2023-03-01T02:56:50;103023.22;;;4.23;57.31
30516;BME280;17297;54.022;10.760;2023-03-01T02:59:21;103021.44;;;4.24;57.34
30516;BME280;17297;54.022;10.760;2023-03-01T03:01:48;103016.13;;;4.24;57.56
30516;BME280;17297;54.022;10.760;2023-03-01T03:04:15;103021.44;;;4.24;57.43
30516;BME280;17297;54.022;10.760;2023-03-01T03:06:49;103017.91;;;4.23;57.57
30516;BME280;17297;54.022;10.760;2023-03-01T03:09:16;103019.63;;;4.24;57.54
30516;BME280;17297;54.022;10.760;2023-03-01T03:11:43;103018.78;;;4.24;57.70
30516;BME280;17297;54.022;10.760;2023-03-01T03:14:14;103022.28;;;4.24;57.90
30516;BME280;17297;54.022;10.760;2023-03-01T03:16:46;103017.91;;;4.23;57.66
30516;BME280;17297;54.022;10.760;2023-03-01T03:19:12;103020.47;;;4.25;57.87
30516;BME280;17297;54.022;10.760;2023-03-01T03:21:38;103024.13;;;4.24;57.87
30516;BME280;17297;54.022;10.760;2023-03-01T03:24:04;103020.56;;;4.23;58.05
30516;BME280;17297;54.022;10.760;2023-03-01T03:26:30;103019.63;;;4.24;58.15
30516;BME280;17297;54.022;10.760;2023-03-01T03:28:56;103005.47;;;4.24;58.05
30516;BME280;17297;54.022;10.760;2023-03-01T03:31:22;103004.56;;;4.23;58.16
30516;BME280;17297;54.022;10.760;2023-03-01T03:33:48;102998.41;;;4.23;58.18
30516;BME280;17297;54.022;10.760;2023-03-01T03:36:19;103004.69;;;4.22;58.33
30516;BME280;17297;54.022;10.760;2023-03-01T03:38:45;103008.31;;;4.21;58.21
30516;BME280;17297;54.022;10.760;2023-03-01T03:41:11;103007.34;;;4.22;58.32
30516;BME280;17297;54.022;10.760;2023-03-01T03:43:39;103009.25;;;4.20;58.36
30516;BME280;17297;54.022;10.760;2023-03-01T03:46:09;102998.69;;;4.18;58.50
30516;BME280;17297;54.022;10.760;2023-03-01T03:48:43;102996.03;;;4.18;58.59
30516;BME280;17297;54.022;10.760;2023-03-01T03:51:10;103005.06;;;4.15;58.46
30516;BME280;17297;54.022;10.760;2023-03-01T03:53:39;103009.56;;;4.15;58.58
30516;BME280;17297;54.022;10.760;2023-03-01T03:56:05;103006.03;;;4.14;58.37
30516;BME280;17297;54.022;10.760;2023-03-01T03:58:30;103006.13;;;4.13;58.47
30516;BME280;17297;54.022;10.760;2023-03-01T04:00:56;103006.13;;;4.13;58.56
30516;BME280;17297;54.022;10.760;2023-03-01T04:03:23;103010.59;;;4.12;58.58
30516;BME280;17297;54.022;10.760;2023-03-01T04:05:50;103008.00;;;4.11;58.60
30516;BME280;17297;54.022;10.760;2023-03-01T04:08:17;103008.97;;;4.10;58.65
30516;BME280;17297;54.022;10.760;2023-03-01T04:10:48;103012.59;;;4.09;58.64
30516;BME280;17297;54.022;10.760;2023-03-01T04:13:19;103010.97;;;4.06;58.75
30516;BME280;17297;54.022;10.760;2023-03-01T04:15:48;103010.13;;;4.06;58.70
30516;BME280;17297;54.022;10.760;2023-03-01T04:18:14;103012.97;;;4.03;58.67
30516;BME280;17297;54.022;10.760;2023-03-01T04:20:41;103001.47;;;4.02;58.67
30516;BME280;17297;54.022;10.760;2023-03-01T04:23:16;103003.44;;;3.99;58.71
30516;BME280;17297;54.022;10.760;2023-03-01T04:25:50;102999.06;;;3.98;58.79
30516;BME280;17297;54.022;10.760;2023-03-01T04:28:26;103001.06;;;3.94;58.77
30516;BME280;17297;54.022;10.760;2023-03-01T04:30:57;102997.75;;;3.90;58.93
30516;BME280;17297;54.022;10.760;2023-03-01T04:33:23;103000.50;;;3.89;58.71
30516;BME280;17297;54.022;10.760;2023-03-01T04:35:49;102995.34;;;3.86;58.68
30516;BME280;17297;54.022;10.760;2023-03-01T04:38:15;102986.69;;;3.82;58.79
30516;BME280;17297;54.022;10.760;2023-03-01T04:40:41;102986.81;;;3.81;58.82
30516;BME280;17297;54.022;10.760;2023-03-01T04:43:08;102980.81;;;3.77;58.86
30516;BME280;17297;54.022;10.760;2023-03-01T04:45:34;102991.66;;;3.74;58.89
30516;BME280;17297;54.022;10.760;2023-03-01T04:48:00;103001.53;;;3.72;58.78
30516;BME280;17297;54.022;10.760;2023-03-01T04:50:25;102995.44;;;3.70;58.91
30516;BME280;17297;54.022;10.760;2023-03-01T04:52:51;102996.47;;;3.67;58.88
30516;BME280;17297;54.022;10.760;2023-03-01T04:55:17;103003.72;;;3.65;58.81
30516;BME280;17297;54.022;10.760;2023-03-01T04:57:43;103009.97;;;3.64;58.95
30516;BME280;17297;54.022;10.760;2023-03-01T05:00:11;103006.56;;;3.62;58.99
30516;BME280;17297;54.022;10.760;2023-03-01T05:02:57;103012.94;;;3.60;59.16
30516;BME280;17297;54.022;10.760;2023-03-01T05:05:27;103008.56;;;3.59;59.07
30516;BME280;17297;54.022;10.760;2023-03-01T05:07:55;103016.63;;;3.57;58.89
30516;BME280;17297;54.022;10.760;2023-03-01T05:10:22;103010.44;;;3.57;59.07
30516;BME280;17297;54.022;10.760;2023-03-01T05:12:48;103007.91;;;3.55;59.05
30516;BME280;17297;54.022;10.760;2023-03-01T05:15:13;103012.34;;;3.55;59.10
30516;BME280;17297;54.022;10.760;2023-03-01T05:17:39;103005.31;;;3.54;59.21
30516;BME280;17297;54.022;10.760;2023-03-01T05:20:05;103003.59;;;3.53;59.15
30516;BME280;17297;54.022;10.760;2023-03-01T05:22:34;103002.81;;;3.51;59.29
30516;BME280;17297;54.022;10.760;2023-03-01T05:25:01;103000.16;;;3.51;59.37
30516;BME280;17297;54.022;10.760;2023-03-01T05:27:26;102994.97;;;3.49;59.12
30516;BME280;17297;54.022;10.760;2023-03-01T05:29:52;102992.38;;;3.47;59.27
30516;BME280;17297;54.022;10.760;2023-03-01T05:32:18;102995.03;;;3.47;59.24
30516;BME280;17297;54.022;10.760;2023-03-01T05:34:43;102989.81;;;3.46;59.15
30516;BME280;17297;54.022;10.760;2023-03-01T05:37:12;102988.09;;;3.45;59.35
30516;BME280;17297;54.022;10.760;2023-03-01T05:39:38;102987.34;;;3.43;59.38
30516;BME280;17297;54.022;10.760;2023-03-01T05:42:04;102984.75;;;3.41;59.25
30516;BME280;17297;54.022;10.760;2023-03-01T05:44:29;102983.97;;;3.39;59.44
30516;BME280;17297;54.022;10.760;2023-03-01T05:46:55;102990.38;;;3.37;59.35
30516;BME280;17297;54.022;10.760;2023-03-01T05:49:22;102985.03;;;3.37;59.37
30516;BME280;17297;54.022;10.760;2023-03-01T05:51:52;102978.94;;;3.35;59.28
30516;BME280;17297;54.022;10.760;2023-03-01T05:54:20;102977.31;;;3.32;59.51
30516;BME280;17297;54.022;10.760;2023-03-01T05:56:46;102970.28;;;3.31;59.32
30516;BME280;17297;54.022;10.760;2023-03-01T05:59:12;102972.09;;;3.31;59.48
30516;BME280;17297;54.022;10.760;2023-03-01T06:01:39;102974.94;;;3.28;59.43
30516;BME280;17297;54.022;10.760;2023-03-01T06:04:05;102977.69;;;3.26;59.45
30516;BME280;17297;54.022;10.760;2023-03-01T06:06:34;102980.53;;;3.23;59.58
30516;BME280;17297;54.022;10.760;2023-03-01T06:09:00;102979.66;;;3.22;59.60
30516;BME280;17297;54.022;10.760;2023-03-01T06:11:25;102992.13;;;3.22;59.57
30516;BME280;17297;54.022;10.760;2023-03-01T06:13:51;102993.16;;;3.19;59.41
30516;BME280;17297;54.022;10.760;2023-03-01T06:16:16;102986.13;;;3.18;59.53
30516;BME280;17297;54.022;10.760;2023-03-01T06:18:42;102986.13;;;3.18;59.43
30516;BME280;17297;54.022;10.760;2023-03-01T06:21:08;102986.19;;;3.17;59.65
30516;BME280;17297;54.022;10.760;2023-03-01T06:23:34;102984.50;;;3.16;59.73
30516;BME280;17297;54.022;10.760;2023-03-01T06:26:00;102987.94;;;3.18;59.66
30516;BME280;17297;54.022;10.760;2023-03-01T06:28:25;102979.06;;;3.17;59.63
30516;BME280;17297;54.022;10.760;2023-03-01T06:30:51;102981.66;;;3.19;59.74
30516;BME280;17297;54.022;10.760;2023-03-01T06:33:18;102989.53;;;3.20;59.80
30516;BME280;17297;54.022;10.760;2023-03-01T06:35:47;102986.69;;;3.23;59.84
30516;BME280;17297;54.022;10.760;2023-03-01T06:38:13;102982.06;;;3.27;59.66
30516;BME280;17297;54.022;10.760;2023-03-01T06:40:40;102983.66;;;3.30;59.71
30516;BME280;17297;54.022;10.760;2023-03-01T06:43:06;102981.78;;;3.32;59.76
30516;BME280;17297;54.022;10.760;2023-03-01T06:45:33;102983.50;;;3.33;59.79
30516;BME280;17297;54.022;10.760;2023-03-01T06:48:05;102980.66;;;3.36;59.73
30516;BME280;17297;54.022;10.760;2023-03-01T06:50:33;102990.19;;;3.40;59.88
30516;BME280;17297;54.022;10.760;2023-03-01T06:52:59;102982.94;;;3.42;59.91
30516;BME280;17297;54.022;10.760;2023-03-01T06:55:25;102975.56;;;3.47;60.09
30516;BME280;17297;54.022;10.760;2023-03-01T06:57:55;102972.41;;;3.55;59.93
30516;BME280;17297;54.022;10.760;2023-03-01T07:00:21;102970.56;;;3.71;nan
30516;BME280;17297;54.022;10.760;2023-03-01T07:02:47;102962.28;;;3.90;60.02
30516;BME280;17297;54.022;10.760;2023-03-01T07:05:13;102956.47;;;4.12;60.15
30516;BME280;17297;54.022;10.760;2023-03-01T07:07:38;102957.47;;;4.38;60.03
30516;BME280;17297;54.022;10.760;2023-03-01T07:10:04;102962.81;;;4.65;59.99
30516;BME280;17297;54.022;10.760;2023-03-01T07:12:30;102949.56;;;4.91;59.74
30516;BME280;17297;54.022;10.760;2023-03-01T07:14:55;102954.09;;;5.16;59.80
30516;BME280;17297;54.022;10.760;2023-03-01T07:17:20;102954.25;;;5.40;59.67
30516;BME280;17297;54.022;10.760;2023-03-01T07:19:46;102960.47;;;5.66;59.26
30516;BME280;17297;54.022;10.760;2023-03-01T07:22:12;102961.84;;;5.84;59.26
30516;BME280;17297;54.022;10.760;2023-03-01T07:24:37;102971.13;;;5.91;58.92
30516;BME280;17297;54.022;10.760;2023-03-01T07:27:02;102975.75;;;5.89;58.78
30516;BME280;17297;54.022;10.760;2023-03-01T07:29:28;102980.44;;;5.86;58.87
30516;BME280;17297;54.022;10.760;2023-03-01T07:31:54;102979.78;;;5.82;58.69
30516;BME280;17297;54.022;10.760;2023-03-01T07:34:20;102986.44;;;5.76;58.70
30516;BME280;17297;54.022;10.760;2023-03-01T07:36:45;102984.06;;;5.72;58.70
30516;BME280;17297;54.022;10.760;2023-03-01T07:39:11;102988.97;;;5.65;58.54
30516;BME280;17297;54.022;10.760;2023-03-01T07:41:36;102987.69;;;5.58;58.70
30516;BME280;17297;54.022;10.760;2023-03-01T07:44:02;102989.19;;;5.49;58.76
30516;BME280;17297;54.022;10.760;2023-03-01T07:46:28;102997.69;;;5.42;58.83
30516;BME280;17297;54.022;10.760;2023-03-01T07:48:53;103008.91;;;5.34;58.77
30516;BME280;17297;54.022;10.760;2023-03-01T07:51:19;103007.63;;;5.27;58.74
30516;BME280;17297;54.022;10.760;2023-03-01T07:53:47;103010.59;;;5.22;59.00
30516;BME280;17297;54.022;10.760;2023-03-01T07:56:14;103014.50;;;5.17;58.88
30516;BME280;17297;54.022;10.760;2023-03-01T07:58:41;103020.94;;;5.14;58.89
30516;BME280;17297;54.022;10.760;2023-03-01T08:01:10;103020.06;;;5.14;59.08
30516;BME280;17297;54.022;10.760;2023-03-01T08:03:36;103026.34;;;5.13;59.11
30516;BME280;17297;54.022;10.760;2023-03-01T08:06:03;103019.31;;;5.12;58.84
30516;BME280;17297;54.022;10.760;2023-03-01T08:08:28;103017.50;;;5.12;59.03
30516;BME280;17297;54.022;10.760;2023-03-01T08:10:58;103013.00;;;5.13;59.19
30516;BME280;17297;54.022;10.760;2023-03-01T08:13:24;103011.09;;;5.15;59.00
30516;BME280;17297;54.022;10.760;2023-03-01T08:15:50;103011.56;;;5.21;58.88
30516;BME280;17297;54.022;10.760;2023-03-01T08:18:17;103005.88;;;5.26;59.12
30516;BME280;17297;54.022;10.760;2023-03-01T08:20:44;103007.00;;;5.36;59.09
30516;BME280;17297;54.022;10.760;2023-03-01T08:23:09;103005.72;;;5.42;59.05
30516;BME280;17297;54.022;10.760;2023-03-01T08:25:35;103005.41;;;5.46;59.08
30516;BME280;17297;54.022;10.760;2023-03-01T08:28:00;103012.16;;;5.52;59.09
30516;BME280;17297;54.022;10.760;2023-03-01T08:30:26;103006.41;;;5.58;59.02
30516;BME280;17297;54.022;10.760;2023-03-01T08:32:52;103005.84;;;5.66;58.94
30516;BME280;17297;54.022;10.760;2023-03-01T08:35:17;102996.66;;;5.70;59.13
30516;BME280;17297;54.022;10.760;2023-03-01T08:37:44;103006.06;;;5.75;59.28
30516;BME280;17297;54.022;10.760;2023-03-01T08:40:10;103007.47;;;5.81;59.14
30516;BME280;17297;54.022;10.760;2023-03-01T08:42:36;103000.94;;;5.85;59.04
30516;BME280;17297;54.022;10.760;2023-03-01T08:45:03;103004.03;;;5.92;59.19
30516;BME280;17297;54.022;10.760;2023-03-01T08:47:29;103002.78;;;5.97;59.16
30516;BME280;17297;54.022;10.760;2023-03-01T08:49:54;103007.69;;;6.04;59.13
30516;BME280;17297;54.022;10.760;2023-03-01T08:52:20;103013.59;;;6.09;59.15
30516;BME280;17297;54.022;10.760;2023-03-01T08:54:47;103020.19;;;6.16;59.13
30516;BME280;17297;54.022;10.760;2023-03-01T08:57:13;103016.44;;;6.18;59.21
30516;BME280;17297;54.022;10.760;2023-03-01T08:59:38;103022.44;;;6.22;59.09
30516;BME280;17297;54.022;10.760;2023-03-01T09:02:12;103022.44;;;6.22;59.03
30516;BME280;17297;54.022;10.760;2023-03-01T09:04:38;103025.00;;;6.23;58.93
30516;BME280;17297;54.022;10.760;2023-03-01T09:07:04;103018.78;;;6.23;59.10
30516;BME280;17297;54.022;10.760;2023-03-01T09:09:29;103018.78;;;6.23;58.99
30516;BME280;17297;54.022;10.760;2023-03-01T09:11:55;103015.25;;;6.22;59.03
30516;BME280;17297;54.022;10.760;2023-03-01T09:14:20;103016.00;;;6.24;59.05
30516;BME280;17297;54.022;10.760;2023-03-01T09:16:46;103011.53;;;6.25;59.10
30516;BME280;17297;54.022;10.760;2023-03-01T09:19:12;103017.63;;;6.27;59.10
30516;BME280;17297;54.022;10.760;2023-03-01T09:21:38;103001.59;;;6.27;59.11
30516;BME280;17297;54.022;10.760;2023-03-01T09:24:04;103003.50;;;6.25;59.15
30516;BME280;17297;54.022;10.760;2023-03-01T09:26:29;103004.56;;;6.22;58.93
30516;BME280;17297;54.022;10.760;2023-03-01T09:28:56;103004.56;;;6.22;59.02
30516;BME280;17297;54.022;10.760;2023-03-01T09:31:23;103014.63;;;6.19;59.01
30516;BME280;17297;54.022;10.760;2023-03-01T09:33:51;103009.41;;;6.17;59.05
30516;BME280;17297;54.022;10.760;2023-03-01T09:36:19;103011.97;;;6.19;59.21
30516;BME280;17297;54.022;10.760;2023-03-01T09:38:46;103008.22;;;6.21;59.11
30516;BME280;17297;54.022;10.760;2023-03-01T09:43:46;103012.16;;;6.29;59.39
30516;BME280;17297;54.022;10.760;2023-03-01T09:46:14;103011.09;;;6.31;59.38
30516;BME280;17297;54.022;10.760;2023-03-01T09:49:00;103014.28;;;6.36;59.35
30516;BME280;17297;54.022;10.760;2023-03-01T09:51:33;103016.63;;;6.41;59.52
30516;BME280;17297;54.022;10.760;2023-03-01T09:54:02;103017.25;;;6.44;59.48
30516;BME280;17297;54.022;10.760;2023-03-01T09:56:36;103013.50;;;6.47;59.49
30516;BME280;17297;54.022;10.760;2023-03-01T10:04:41;103007.16;;;6.61;59.40
30516;BME280;17297;54.022;10.760;2023-03-01T10:09:39;102999.66;;;6.66;59.38
30516;BME280;17297;54.022;10.760;2023-03-01T10:12:14;103004.78;;;6.69;59.31
30516;BME280;17297;54.022;10.760;2023-03-01T10:14:54;102998.47;;;6.70;59.34
30516;BME280;17297;54.022;10.760;2023-03-01T10:17:51;102993.75;;;6.74;59.59
30516;BME280;17297;54.022;10.760;2023-03-01T10:20:22;102997.16;;;6.76;59.31
30516;BME280;17297;54.022;10.760;2023-03-01T10:22:49;102993.28;;;6.80;59.31
30516;BME280;17297;54.022;10.760;2023-03-01T10:26:11;102986.97;;;6.81;59.45
30516;BME280;17297;54.022;10.760;2023-03-01T10:28:19;102996.59;;;6.83;59.58
30516;BME280;17297;54.022;10.760;2023-03-01T10:30:49;102994.53;;;6.87;59.42
30516;BME280;17297;54.022;10.760;2023-03-01T10:33:23;102994.31;;;6.90;59.56
30516;BME280;17297;54.022;10.760;2023-03-01T10:35:49;102994.94;;;6.93;59.67
30516;BME280;17297;54.022;10.760;2023-03-01T10:38:16;102992.03;;;6.97;59.42
30516;BME280;17297;54.022;10.760;2023-03-01T10:40:56;102990.94;;;6.99;59.74
30516;BME280;17297;54.022;10.760;2023-03-01T10:43:32;102988.03;;;7.02;59.61
30516;BME280;17297;54.022;10.760;2023-03-01T10:51:32;102980.78;;;7.15;59.73
30516;BME280;17297;54.022;10.760;2023-03-01T10:53:57;102977.78;;;7.20;59.60
30516;BME280;17297;54.022;10.760;2023-03-01T10:56:23;102975.81;;;7.22;59.71
30516;BME280;17297;54.022;10.760;2023-03-01T10:59:01;102978.50;;;7.22;59.62
30516;BME280;17297;54.022;10.760;2023-03-01T11:01:29;102980.09;;;7.25;59.64
30516;BME280;17297;54.022;10.760;2023-03-01T11:04:09;102986.28;;;7.25;59.80
30516;BME280;17297;54.022;10.760;2023-03-01T11:06:39;102985.34;;;7.26;59.70
30516;BME280;17297;54.022;10.760;2023-03-01T11:09:15;102980.84;;;7.27;59.82
30516;BME280;17297;54.022;10.760;2023-03-01T11:11:41;102982.53;;;7.28;59.59
30516;BME280;17297;54.022;10.760;2023-03-01T11:14:16;102989.72;;;7.27;59.70
30516;BME280;17297;54.022;10.760;2023-03-01T11:16:48;102989.72;;;7.27;59.67
30516;BME280;17297;54.022;10.760;2023-03-01T11:19:17;102989.72;;;7.27;59.67
30516;BME280;17297;54.022;10.760;2023-03-01T11:22:31;102993.38;;;7.26;59.68
30516;BME280;17297;54.022;10.760;2023-03-01T11:24:51;102989.81;;;7.26;59.82
30516;BME280;17297;54.022;10.760;2023-03-01T11:27:24;102991.66;;;7.25;59.64
30516;BME280;17297;54.022;10.760;2023-03-01T11:30:21;102988.13;;;7.25;59.91
30516;BME280;17297;54.022;10.760;2023-03-01T11:35:35;102983.53;;;7.27;59.75
30516;BME280;17297;54.022;10.760;2023-03-01T11:38:05;102971.97;;;7.26;59.95
30516;BME280;17297;54.022;10.760;2023-03-01T11:40:46;102975.47;;;7.27;60.05
30516;BME280;17297;54.022;10.760;2023-03-01T11:46:26;102969.38;;;7.25;59.91
30516;BME280;17297;54.022;10.760;2023-03-01T11:52:17;102973.75;;;7.26;59.98
30516;BME280;17297;54.022;10.760;2023-03-01T11:54:56;102964.03;;;7.25;59.97
30516;BME280;17297;54.022;10.760;2023-03-01T12:00:30;102972.28;;;7.22;60.02
30516;BME280;17297;54.022;10.760;2023-03-01T12:03:23;102965.25;;;7.21;60.20
30516;BME280;17297;54.022;10.760;2023-03-01T12:06:18;102962.66;;;7.19;60.28
30516;BME280;17297;54.022;10.760;2023-03-01T12:11:44;102953.91;;;7.17;60.20
30516;BME280;17297;54.022;10.760;2023-03-01T12:22:13;102951.09;;;7.18;60.51
30516;BME280;17297;54.022;10.760;2023-03-01T12:28:01;102940.63;;;7.15;60.48
30516;BME280;17297;54.022;10.760;2023-03-01T12:38:23;102936.78;;;7.20;60.33
30516;BME280;17297;54.022;10.760;2023-03-01T12:49:31;102925.34;;;7.29;60.36
30516;BME280;17297;54.022;10.760;2023-03-01T12:52:22;102923.28;;;7.32;60.53
30516;BME280;17297;54.022;10.760;2023-03-01T12:54:53;102922.31;;;7.33;60.43
30516;BME280;17297;54.022;10.760;2023-03-01T12:57:30;102923.91;;;7.36;60.62
30516;BME280;17297;54.022;10.760;2023-03-01T13:00:26;102921.94;;;7.38;60.58
30516;BME280;17297;54.022;10.760;2023-03-01T13:03:09;102916.47;;;7.39;60.62
30516;BME280;17297;54.022;10.760;2023-03-01T13:06:08;102920.75;;;7.42;60.64
30516;BME280;17297;54.022;10.760;2023-03-01T13:08:43;102918.94;;;7.43;60.56
30516;BME280;17297;54.022;10.760;2023-03-01T13:11:20;102922.44;;;7.43;60.46
30516;BME280;17297;54.022;10.760;2023-03-01T13:13:47;102917.94;;;7.44;60.55
30516;BME280;17297;54.022;10.760;2023-03-01T13:19:12;102907.22;;;7.44;60.48
30516;BME280;17297;54.022;10.760;2023-03-01T13:21:39;102898.25;;;7.45;60.54
30516;BME280;17297;54.022;10.760;2023-03-01T13:29:58;102890.22;;;7.45;60.55
30516;BME280;17297;54.022;10.760;2023-03-01T13:32:29;102893.59;;;7.47;60.12
30516;BME280;17297;54.022;10.760;2023-03-01T13:37:51;102885.81;;;7.44;60.33
30516;BME280;17297;54.022;10.760;2023-03-01T13:42:54;102877.44;;;7.48;60.75
30516;BME280;17297;54.022;10.760;2023-03-01T13:45:24;102878.88;;;7.52;60.62
30516;BME280;17297;54.022;10.760;2023-03-01T13:48:17;102884.00;;;7.55;60.69
30516;BME280;17297;54.022;10.760;2023-03-01T13:50:52;102881.19;;;7.57;60.72
30516;BME280;17297;54.022;10.760;2023-03-01T13:53:22;102885.34;;;7.61;60.67
30516;BME280;17297;54.022;10.760;2023-03-01T13:55:57;102883.38;;;7.63;60.66
30516;BME280;17297;54.022;10.760;2023-03-01T14:03:26;102879.38;;;7.69;60.62
30516;BME280;17297;54.022;10.760;2023-03-01T14:06:14;102870.47;;;7.68;60.63
30516;BME280;17297;54.022;10.760;2023-03-01T14:08:41;102872.16;;;7.69;60.66
30516;BME280;17297;54.022;10.760;2023-03-01T14:11:54;102877.53;;;7.69;60.65
30516;BME280;17297;54.022;10.760;2023-03-01T14:20:09;102864.63;;;7.63;60.95
30516;BME280;17297;54.022;10.760;2023-03-01T14:22:36;102868.03;;;7.65;60.90
30516;BME280;17297;54.022;10.760;2023-03-01T14:25:06;102866.44;;;7.62;60.89
30516;BME280;17297;54.022;10.760;2023-03-01T14:27:42;102861.34;;;7.59;60.85
30516;BME280;17297;54.022;10.760;2023-03-01T14:30:15;102856.97;;;7.58;61.15
30516;BME280;17297;54.022;10.760;2023-03-01T14:32:58;102852.34;;;7.60;61.07
30516;BME280;17297;54.022;10.760;2023-03-01T14:35:33;102848.69;;;7.61;61.27
30516;BME280;17297;54.022;10.760;2023-03-01T14:37:59;102862.09;;;7.61;60.98